Time;durP1;ratioP1;P1;durP2;ratioP2;P2;SDS_P1;SDS_P2;PMS_P1;PMS_P2;Temp;Humidity;BMP_temperature;BMP_pressure;BME280_temperature;BME280_humidity;BME280_pressure;Samples;Min_cycle;Max_cycle;Signal;HPM_P1;HPM_P2
2021/08/27 00:04:58;;;;;;;4.43;1.95;;;;;;;12.47;88.22;99505.28;10457273;28;20048;-72
2021/08/27 00:09:59;;;;;;;4.55;2.47;;;;;;;12.57;85.88;99511.81;10457055;28;20052;-73
2021/08/27 00:15:03;;;;;;;2.90;2.25;;;;;;;12.56;87.13;99507.47;10439688;28;20132;-72
2021/08/27 00:20:07;;;;;;;3.53;2.30;;;;;;;12.66;86.29;99519.31;10457757;28;20448;-72
2021/08/27 00:25:09;;;;;;;3.90;1.98;;;;;;;12.56;86.83;99510.94;10456946;28;20079;-72
2021/08/27 00:30:11;;;;;;;2.05;1.63;;;;;;;12.55;87.53;99511.88;10439961;28;20456;-72
2021/08/27 00:35:13;;;;;;;5.15;1.60;;;;;;;12.56;86.82;99505.69;10456665;28;20053;-72
2021/08/27 00:40:15;;;;;;;5.25;2.05;;;;;;;12.51;87.57;99507.69;10456455;28;20053;-72
2021/08/27 00:45:16;;;;;;;3.03;2.10;;;;;;;12.58;86.52;99503.84;10456730;28;20104;-72
2021/08/27 00:50:18;;;;;;;4.95;2.85;;;;;;;12.53;86.74;99505.84;10438906;28;20166;-71
2021/08/27 00:55:20;;;;;;;2.95;2.50;;;;;;;12.64;86.03;99497.41;10456144;28;20099;-72
2021/08/27 01:00:23;;;;;;;3.58;2.42;;;;;;;12.56;85.83;99502.19;10456219;28;20044;-74
2021/08/27 01:05:25;;;;;;;3.67;2.47;;;;;;;12.56;86.09;99503.03;10438019;28;20147;-72
2021/08/27 01:10:33;;;;;;;3.00;2.60;;;;;;;12.60;85.20;99506.38;10455746;28;20083;-73
2021/08/27 01:15:46;;;;;;;2.72;2.38;;;;;;;12.45;85.46;99500.09;10455832;28;20083;-72
2021/08/27 01:21:09;;;;;;;4.53;2.35;;;;;;;12.50;85.92;99519.16;10464403;28;20459;-73
2021/08/27 01:26:14;;;;;;;4.13;2.80;;;;;;;12.25;89.04;99516.81;10464383;28;20045;-73
2021/08/27 01:31:19;;;;;;;3.90;2.50;;;;;;;12.12;90.34;99520.97;10463866;28;20041;-72
2021/08/27 01:36:22;;;;;;;3.45;2.85;;;;;;;12.18;89.95;99514.56;10446575;28;20147;-72
2021/08/27 01:41:27;;;;;;;5.13;2.30;;;;;;;11.98;90.84;99513.69;10464125;28;20041;-71
2021/08/27 01:46:31;;;;;;;1.67;1.50;;;;;;;12.10;90.43;99515.78;10463457;28;20045;-72
2021/08/27 01:51:35;;;;;;;2.80;1.50;;;;;;;12.16;89.98;99516.41;10463444;28;20091;-71
2021/08/27 01:56:38;;;;;;;2.42;1.50;;;;;;;12.14;89.64;99513.00;10463026;28;20508;-71
2021/08/27 02:01:40;;;;;;;3.90;1.90;;;;;;;12.13;89.23;99517.44;10463396;28;20041;-71
2021/08/27 02:06:43;;;;;;;3.75;2.47;;;;;;;12.07;89.69;99513.28;10463126;28;20052;-72
2021/08/27 02:11:46;;;;;;;2.80;2.17;;;;;;;12.21;89.03;99506.50;10462320;28;20514;-72
2021/08/27 02:16:47;;;;;;;3.40;2.50;;;;;;;12.14;88.76;99507.75;10463583;28;20102;-71
2021/08/27 02:21:53;;;;;;;2.75;2.30;;;;;;;12.08;90.02;99501.81;10461896;28;20109;-72
2021/08/27 02:26:56;;;;;;;2.87;2.57;;;;;;;12.01;90.70;99508.28;10462874;28;20049;-72
2021/08/27 02:32:01;;;;;;;3.47;3.17;;;;;;;12.06;90.64;99508.94;10461070;28;20103;-72
2021/08/27 02:37:05;;;;;;;2.83;2.53;;;;;;;12.05;90.24;99504.59;10461292;28;20560;-72
2021/08/27 02:42:07;;;;;;;3.92;3.58;;;;;;;12.10;90.12;99509.66;10462215;28;20094;-71
2021/08/27 02:47:09;;;;;;;3.58;3.17;;;;;;;12.11;89.67;99514.84;10443455;28;20048;-71
2021/08/27 02:52:41;;;;;;;4.90;3.17;;;;;;;12.25;89.18;99513.34;10443481;28;20045;-72
2021/08/27 02:57:58;;;;;;;3.80;3.17;;;;;;;11.97;91.35;99512.00;10443024;28;20506;-71
2021/08/27 03:03:04;;;;;;;3.80;2.87;;;;;;;12.08;90.65;99500.94;10460718;28;20041;-72
2021/08/27 03:08:13;;;;;;;3.30;2.45;;;;;;;12.15;90.12;99507.66;10461081;28;20045;-71
2021/08/27 03:13:25;;;;;;;2.83;2.35;;;;;;;12.01;92.04;99510.94;10459936;28;20106;-72
2021/08/27 03:18:45;;;;;;;3.58;2.20;;;;;;;11.96;92.34;99504.16;10459828;28;20049;-72
2021/08/27 03:23:49;;;;;;;2.42;2.13;;;;;;;12.13;91.01;99501.63;10459826;28;20052;-72
2021/08/27 03:28:59;;;;;;;3.33;2.65;;;;;;;12.08;92.59;99504.44;10459095;28;20033;-72
2021/08/27 03:34:01;;;;;;;8.05;3.58;;;;;;;11.97;91.76;99504.09;10441425;28;20521;-72
2021/08/27 03:39:04;;;;;;;5.28;4.65;;;;;;;12.10;91.73;99504.38;10459340;28;20094;-72
2021/08/27 03:44:06;;;;;;;5.00;4.60;;;;;;;12.08;91.72;99493.91;10458552;28;20053;-72
2021/08/27 03:49:08;;;;;;;5.95;5.65;;;;;;;12.05;92.07;99496.69;10440627;28;20141;-71
2021/08/27 03:54:10;;;;;;;7.25;6.65;;;;;;;11.96;92.69;99494.47;10458907;28;20066;-71
2021/08/27 03:59:13;;;;;;;8.48;7.88;;;;;;;12.11;91.99;99496.41;10458293;28;20112;-72
2021/08/27 04:04:19;;;;;;;9.65;8.88;;;;;;;12.06;91.82;99497.53;10440801;28;20049;-72
2021/08/27 04:09:21;;;;;;;9.77;8.77;;;;;;;12.20;90.41;99489.00;10458774;28;20069;-72
2021/08/27 04:14:23;;;;;;;9.52;8.93;;;;;;;12.10;91.15;99499.13;10457715;28;20114;-71
2021/08/27 04:19:25;;;;;;;9.45;8.85;;;;;;;12.12;91.26;99497.25;10457478;28;20045;-73
2021/08/27 04:24:26;;;;;;;8.27;7.82;;;;;;;12.22;91.09;99490.66;10457003;28;20037;-72
2021/08/27 04:29:28;;;;;;;9.15;8.55;;;;;;;12.08;92.25;99500.94;10457503;28;20044;-72
2021/08/27 04:34:29;;;;;;;8.60;8.02;;;;;;;11.93;94.84;99505.16;10457228;28;20041;-72
2021/08/27 04:39:31;;;;;;;6.43;6.03;;;;;;;12.26;91.46;99499.22;10456519;28;20067;-71
2021/08/27 04:44:33;;;;;;;8.93;8.30;;;;;;;12.04;93.88;99500.25;10456685;28;20049;-72
2021/08/27 04:49:34;;;;;;;7.20;6.80;;;;;;;12.26;92.91;99496.59;10439939;28;20049;-72
2021/08/27 04:54:35;;;;;;;6.90;6.40;;;;;;;12.04;93.91;99502.91;10455925;28;20053;-72
2021/08/27 04:59:42;;;;;;;5.88;5.57;;;;;;;12.20;92.76;99503.00;10456186;28;20094;-71
2021/08/27 05:04:44;;;;;;;5.75;5.13;;;;;;;12.42;90.96;99502.00;10456180;28;20045;-71
2021/08/27 05:09:45;;;;;;;7.07;6.57;;;;;;;12.19;92.84;99503.94;10456488;28;20045;-71
2021/08/27 05:14:47;;;;;;;6.53;5.93;;;;;;;12.35;91.46;99502.31;10455825;28;20045;-71
2021/08/27 05:19:49;;;;;;;5.75;5.30;;;;;;;12.55;88.94;99503.13;10455692;28;20045;-71
2021/08/27 05:24:50;;;;;;;6.00;5.57;;;;;;;12.65;88.84;99503.53;10475234;22;20052;-77
2021/08/27 05:29:52;;;;;;;6.32;5.68;;;;;;;12.62;88.74;99500.13;10463291;28;20047;-77
2021/08/27 05:34:53;;;;;;;7.88;7.28;;;;;;;12.42;91.02;99507.28;10443590;28;20052;-77
2021/08/27 05:39:55;;;;;;;8.45;7.85;;;;;;;12.40;90.88;99504.72;10458377;28;20207;-76
2021/08/27 05:44:57;;;;;;;9.45;8.85;;;;;;;12.56;90.48;99500.41;10457678;28;20049;-75
2021/08/27 05:50:12;;;;;;;8.60;7.90;;;;;;;12.68;90.44;99503.38;10443277;28;20041;-75
2021/08/27 05:55:14;;;;;;;9.20;8.40;;;;;;;12.67;90.14;99502.53;10457766;28;20413;-77
2021/08/27 06:00:16;;;;;;;6.97;6.47;;;;;;;12.71;89.13;99493.56;10457729;28;20048;-76
2021/08/27 06:05:20;;;;;;;8.70;8.10;;;;;;;12.69;90.26;99492.75;10460293;28;20083;-76
2021/08/27 06:10:22;;;;;;;7.95;7.32;;;;;;;12.66;89.93;99495.56;10466545;28;20047;-77
2021/08/27 06:15:23;;;;;;;9.15;8.50;;;;;;;12.71;91.42;99503.25;10466206;28;20051;-77
2021/08/27 06:20:25;;;;;;;7.93;7.28;;;;;;;12.95;88.78;99504.66;10448030;28;20564;-77
2021/08/27 06:25:26;;;;;;;5.85;5.45;;;;;;;13.06;86.74;99499.72;10466299;28;20435;-77
2021/08/27 06:30:28;;;;;;;8.40;5.97;;;;;;;12.85;89.09;99506.06;10465637;28;20097;-76
2021/08/27 06:35:30;;;;;;;5.13;4.68;;;;;;;13.06;87.34;99504.13;10447246;28;20041;-75
2021/08/27 06:40:32;;;;;;;5.25;4.93;;;;;;;13.14;88.18;99508.06;10464864;28;20045;-76
2021/08/27 06:45:34;;;;;;;5.40;5.03;;;;;;;13.11;87.72;99507.41;10464623;28;20106;-76
2021/08/27 06:50:38;;;;;;;6.32;5.82;;;;;;;12.93;89.40;99511.81;10446456;28;20068;-76
2021/08/27 06:55:40;;;;;;;5.28;4.88;;;;;;;13.09;86.69;99514.53;10465245;28;20041;-78
2021/08/27 07:00:41;;;;;;;6.68;5.72;;;;;;;12.93;88.27;99508.31;10447558;28;20040;-78
2021/08/27 07:05:44;;;;;;;6.47;5.93;;;;;;;13.02;87.92;99511.34;10446426;28;20090;-76
2021/08/27 07:10:45;;;;;;;6.88;6.38;;;;;;;13.05;88.98;99512.97;10464081;28;20056;-77
2021/08/27 07:15:47;;;;;;;7.20;6.70;;;;;;;12.82;90.73;99519.38;10445113;28;20175;-77
2021/08/27 07:20:50;;;;;;;6.75;6.28;;;;;;;12.99;89.13;99513.28;10462625;28;20508;-76
2021/08/27 07:25:52;;;;;;;5.40;5.10;;;;;;;13.16;86.51;99520.34;10463823;28;20049;-76
2021/08/27 07:30:53;;;;;;;6.00;5.70;;;;;;;13.21;88.34;99515.69;10446298;28;20095;-78
2021/08/27 07:35:55;;;;;;;7.03;6.63;;;;;;;13.30;89.66;99523.19;10446581;28;20453;-77
2021/08/27 07:40:57;;;;;;;6.57;6.22;;;;;;;13.32;88.77;99530.06;10447395;28;20486;-77
2021/08/27 07:45:59;;;;;;;5.43;5.05;;;;;;;13.31;86.22;99520.44;10447444;28;20045;-77
2021/08/27 07:51:00;;;;;;;6.35;5.95;;;;;;;13.16;88.68;99515.06;10469133;28;20056;-78
2021/08/27 07:56:03;;;;;;;5.90;5.47;;;;;;;13.13;88.33;99519.56;10448758;28;20045;-80
2021/08/27 08:01:04;;;;;;;6.45;6.03;;;;;;;13.02;88.56;99529.81;10451656;28;20049;-80
2021/08/27 08:06:06;;;;;;;3.65;3.35;;;;;;;13.00;86.27;99533.44;10451401;28;20055;-80
2021/08/27 08:11:08;;;;;;;4.50;4.28;;;;;;;12.96;88.99;99527.47;10450169;28;20107;-79
2021/08/27 08:16:10;;;;;;;4.30;3.97;;;;;;;13.07;86.58;99538.34;10472238;28;20490;-80
2021/08/27 08:21:12;;;;;;;4.82;4.47;;;;;;;13.09;85.69;99528.56;10453287;28;20053;-79
2021/08/27 08:26:14;;;;;;;5.25;4.95;;;;;;;13.18;86.49;99534.31;10464218;28;20045;-77
2021/08/27 08:31:22;;;;;;;6.20;5.70;;;;;;;13.18;87.78;99535.16;10461172;28;20049;-77
2021/08/27 08:36:24;;;;;;;7.72;7.22;;;;;;;13.07;86.61;99532.22;10461737;28;20128;-79
2021/08/27 08:41:26;;;;;;;7.55;7.03;;;;;;;13.03;87.40;99536.78;10442361;28;20115;-78
2021/08/27 08:46:29;;;;;;;7.43;6.85;;;;;;;13.07;87.30;99534.88;10459878;28;20048;-77
2021/08/27 08:51:34;;;;;;;7.57;7.10;;;;;;;13.04;89.71;99535.84;10460450;28;20044;-77
2021/08/27 08:56:36;;;;;;;6.53;6.13;;;;;;;13.26;85.66;99527.75;10463323;28;20045;-77
2021/08/27 09:01:37;;;;;;;6.35;5.82;;;;;;;13.11;87.23;99534.63;10461621;28;20505;-77
2021/08/27 09:06:40;;;;;;;6.40;5.90;;;;;;;13.22;87.33;99541.16;10426316;28;20106;-77
2021/08/27 09:11:42;;;;;;;6.68;6.18;;;;;;;13.20;87.24;99525.41;10444100;28;20049;-77
2021/08/27 09:16:43;;;;;;;6.75;6.25;;;;;;;13.35;88.60;99534.34;10461470;28;20037;-77
2021/08/27 09:21:47;;;;;;;5.20;4.85;;;;;;;13.47;87.43;99527.59;10461944;28;20202;-77
2021/08/27 09:26:57;;;;;;;3.90;3.22;;;;;;;13.41;85.78;99525.25;10444419;28;20095;-78
2021/08/27 09:31:59;;;;;;;4.22;3.80;;;;;;;13.33;87.63;99518.59;10442161;28;20072;-77
2021/08/27 09:37:01;;;;;;;3.30;2.58;;;;;;;13.35;86.62;99518.50;10459861;28;20095;-77
2021/08/27 09:42:03;;;;;;;3.05;1.98;;;;;;;13.33;87.72;99523.88;10467774;28;20079;-77
2021/08/27 09:47:06;;;;;;;2.22;1.95;;;;;;;13.30;88.63;99517.91;10467362;28;20052;-77
2021/08/27 09:52:10;;;;;;;3.05;1.58;;;;;;;13.38;88.43;99519.22;10467224;28;20120;-78
2021/08/27 09:57:13;;;;;;;2.50;1.67;;;;;;;13.35;88.71;99516.72;10467249;28;20044;-77
2021/08/27 10:02:29;;;;;;;2.08;1.60;;;;;;;13.34;89.14;99519.44;10467106;28;20076;-77
2021/08/27 10:07:34;;;;;;;2.47;1.60;;;;;;;13.42;88.60;99521.69;10467300;28;20045;-77
2021/08/27 10:12:39;;;;;;;2.25;1.50;;;;;;;13.31;89.18;99519.59;10467237;28;20037;-77
2021/08/27 10:17:41;;;;;;;1.40;1.30;;;;;;;13.29;91.31;99521.47;10467246;28;20456;-77
2021/08/27 10:22:43;;;;;;;1.35;1.05;;;;;;;13.44;89.41;99519.81;10467461;28;20050;-76
2021/08/27 10:27:48;;;;;;;0.80;0.80;;;;;;;13.33;89.14;99523.88;10450441;28;20087;-78
2021/08/27 10:32:50;;;;;;;1.35;1.05;;;;;;;13.29;89.33;99522.31;10467911;28;20048;-77
2021/08/27 10:37:54;;;;;;;1.60;0.80;;;;;;;13.11;88.90;99523.22;10467056;28;20384;-76
2021/08/27 10:42:57;;;;;;;2.13;0.93;;;;;;;12.96;91.16;99523.97;10466232;28;20474;-76
2021/08/27 10:48:13;;;;;;;4.43;1.10;;;;;;;12.90;90.89;99537.47;10465014;28;20045;-76
2021/08/27 10:53:54;;;;;;;3.63;1.00;;;;;;;12.66;91.00;99543.03;10463884;28;20048;-76
2021/08/27 10:58:55;;;;;;;1.13;0.80;;;;;;;12.44;92.28;99540.56;10281455;28;20059;-77
2021/08/27 11:04:07;;;;;;;2.17;0.50;;;;;;;12.29;93.13;99544.75;10297616;28;20114;-77
2021/08/27 11:09:19;;;;;;;1.25;0.60;;;;;;;12.35;94.96;99547.13;10297382;28;20047;-77
2021/08/27 11:14:21;;;;;;;2.85;1.50;;;;;;;12.60;93.67;99540.66;10297371;28;20082;-77
2021/08/27 11:19:34;;;;;;;2.80;0.75;;;;;;;12.68;93.97;99532.41;10296830;28;20059;-76
2021/08/27 11:24:40;;;;;;;1.27;0.70;;;;;;;12.84;92.32;99536.84;10412588;22;20111;-68
2021/08/27 11:29:43;;;;;;;1.83;0.87;;;;;;;13.00;91.86;99525.53;10459617;28;20048;-69
2021/08/27 11:34:50;;;;;;;0.45;0.45;;;;;;;13.00;93.50;99536.94;10457731;28;20287;-68
2021/08/27 11:39:52;;;;;;;0.63;0.60;;;;;;;13.36;89.18;99536.91;10458751;28;20458;-68
2021/08/27 11:45:11;;;;;;;0.70;0.52;;;;;;;13.28;90.77;99528.53;10458552;28;20087;-69
2021/08/27 11:50:31;;;;;;;1.08;0.60;;;;;;;13.52;89.88;99534.34;10459161;28;20045;-69
2021/08/27 11:55:41;;;;;;;0.70;0.70;;;;;;;13.64;89.87;99535.50;10458131;28;20037;-69
2021/08/27 12:00:44;;;;;;;2.97;0.95;;;;;;;13.69;89.70;99533.47;10456642;28;20045;-69
2021/08/27 12:05:49;;;;;;;0.85;0.60;;;;;;;13.74;89.16;99539.34;10443207;28;20041;-69
2021/08/27 12:10:50;;;;;;;1.23;0.70;;;;;;;14.06;87.27;99540.28;10422182;28;20046;-69
2021/08/27 12:15:52;;;;;;;0.65;0.65;;;;;;;14.27;84.87;99538.25;10456953;28;20061;-70
2021/08/27 12:20:54;;;;;;;0.70;0.70;;;;;;;14.25;85.04;99539.28;10443631;28;20116;-69
2021/08/27 12:26:08;;;;;;;0.60;0.60;;;;;;;14.64;84.05;99534.44;10417421;28;20483;-69
2021/08/27 12:31:10;;;;;;;0.43;0.43;;;;;;;14.96;84.09;99538.84;10414416;28;20609;-69
2021/08/27 12:36:36;;;;;;;1.35;0.60;;;;;;;15.08;81.08;99540.78;10415738;28;20046;-69
2021/08/27 12:41:39;;;;;;;0.50;0.45;;;;;;;15.03;79.98;99537.56;10438998;28;20052;-69
2021/08/27 12:46:49;;;;;;;0.60;0.30;;;;;;;15.02;79.94;99536.72;10456469;28;20506;-69
2021/08/27 12:51:53;;;;;;;0.93;0.30;;;;;;;15.14;78.13;99532.50;10456005;28;20037;-69
2021/08/27 12:56:59;;;;;;;0.35;0.20;;;;;;;15.42;76.24;99534.38;10455965;28;20051;-69
2021/08/27 13:02:13;;;;;;;1.60;0.40;;;;;;;15.47;80.71;99537.59;10455934;28;20103;-70
2021/08/27 13:07:32;;;;;;;0.20;0.20;;;;;;;15.44;75.11;99540.41;10456830;28;20123;-70
2021/08/27 13:12:34;;;;;;;0.60;0.30;;;;;;;15.11;76.05;99536.16;10437965;28;20048;-70
2021/08/27 13:17:36;;;;;;;0.50;0.20;;;;;;;15.23;78.24;99531.97;10415394;28;20045;-70
2021/08/27 13:22:41;;;;;;;0.43;0.35;;;;;;;15.63;74.71;99533.09;10415142;28;20045;-70
2021/08/27 13:27:44;;;;;;;0.30;0.30;;;;;;;15.66;75.67;99536.50;10414152;28;20050;-71
2021/08/27 13:32:53;;;;;;;0.30;0.30;;;;;;;15.70;78.74;99541.53;10413937;28;20045;-71
2021/08/27 13:37:55;;;;;;;0.30;0.30;;;;;;;15.55;76.61;99543.28;10428838;28;20102;-71
2021/08/27 13:42:57;;;;;;;0.93;0.30;;;;;;;15.44;76.88;99543.06;10455240;28;20052;-70
2021/08/27 13:47:59;;;;;;;0.30;0.30;;;;;;;15.42;76.29;99544.09;10455117;28;20045;-69
2021/08/27 13:53:00;;;;;;;0.47;0.40;;;;;;;15.38;80.09;99544.28;10454911;28;20045;-70
2021/08/27 13:58:03;;;;;;;0.40;0.40;;;;;;;15.11;78.56;99538.81;10455078;28;20053;-69
2021/08/27 14:03:05;;;;;;;0.30;0.30;;;;;;;15.14;80.61;99537.81;10454977;28;20045;-69
2021/08/27 14:08:07;;;;;;;0.40;0.40;;;;;;;14.92;79.55;99537.31;10453474;28;20045;-69
2021/08/27 14:13:09;;;;;;;0.40;0.30;;;;;;;14.82;83.42;99537.84;10454662;28;20068;-69
2021/08/27 14:18:11;;;;;;;1.00;0.60;;;;;;;14.68;84.65;99542.22;10454798;28;20056;-69
2021/08/27 14:23:12;;;;;;;0.70;0.70;;;;;;;14.74;83.75;99526.88;10454131;28;20044;-68
2021/08/27 14:28:14;;;;;;;0.50;0.50;;;;;;;14.74;83.52;99534.81;10459994;28;20041;-69
2021/08/27 14:33:16;;;;;;;0.80;0.73;;;;;;;15.04;86.06;99534.81;10461648;28;20067;-69
2021/08/27 14:38:18;;;;;;;0.82;0.70;;;;;;;15.42;85.39;99533.50;10461903;28;20049;-69
2021/08/27 14:43:20;;;;;;;1.33;0.63;;;;;;;15.63;81.23;99538.38;10461923;28;20041;-69
2021/08/27 14:48:22;;;;;;;1.13;0.70;;;;;;;15.24;77.42;99531.00;10462474;28;20052;-70
2021/08/27 14:53:23;;;;;;;0.80;0.80;;;;;;;15.06;78.67;99540.88;10461167;28;20494;-69
2021/08/27 14:58:28;;;;;;;0.50;0.50;;;;;;;15.12;79.97;99544.97;10460799;28;20051;-70
2021/08/27 15:03:30;;;;;;;0.88;0.70;;;;;;;15.18;79.40;99541.09;10459478;28;20102;-69
2021/08/27 15:08:31;;;;;;;1.02;0.70;;;;;;;15.14;78.74;99548.38;10460073;28;20485;-69
2021/08/27 15:13:33;;;;;;;0.70;0.70;;;;;;;15.06;78.75;99555.91;10460591;28;20087;-70
2021/08/27 15:18:34;;;;;;;1.00;0.80;;;;;;;14.95;79.40;99555.66;10462542;28;20106;-70
2021/08/27 15:23:38;;;;;;;1.15;0.90;;;;;;;15.07;80.38;99553.16;10461595;28;20071;-70
2021/08/27 15:28:40;;;;;;;0.52;0.52;;;;;;;15.02;78.95;99573.75;10461049;28;20044;-70
2021/08/27 15:33:41;;;;;;;0.30;0.30;;;;;;;14.54;76.16;99580.03;10465178;28;20045;-70
2021/08/27 15:38:43;;;;;;;4.47;0.77;;;;;;;14.19;76.49;99581.91;10463307;28;20556;-69
2021/08/27 15:43:45;;;;;;;0.20;0.20;;;;;;;14.04;78.58;99576.50;10463874;28;20099;-69
2021/08/27 15:48:46;;;;;;;1.15;0.50;;;;;;;13.98;79.02;99574.19;10463306;28;20045;-70
2021/08/27 15:53:51;;;;;;;1.48;0.40;;;;;;;14.16;78.72;99571.50;10463056;28;20041;-69
2021/08/27 15:58:53;;;;;;;0.32;0.30;;;;;;;14.16;79.58;99574.13;10462308;28;20383;-70
2021/08/27 16:03:55;;;;;;;1.00;0.60;;;;;;;14.22;80.50;99571.19;10463854;28;20048;-70
2021/08/27 16:08:57;;;;;;;2.58;0.50;;;;;;;14.16;83.96;99582.06;10460177;28;20103;-70
2021/08/27 16:14:03;;;;;;;0.90;0.60;;;;;;;14.26;84.33;99592.09;10461752;28;20053;-70
2021/08/27 16:19:06;;;;;;;0.82;0.63;;;;;;;14.17;86.15;99591.72;10463068;28;20040;-70
2021/08/27 16:24:08;;;;;;;1.50;0.75;;;;;;;14.12;86.32;99605.16;10458857;28;20396;-69
2021/08/27 16:29:10;;;;;;;1.90;1.60;;;;;;;13.97;88.52;99609.47;10458008;28;20071;-69
2021/08/27 16:34:12;;;;;;;5.00;1.60;;;;;;;14.00;88.16;99611.13;10462587;28;20041;-69
2021/08/27 16:39:14;;;;;;;2.20;1.30;;;;;;;14.03;88.83;99614.47;10461949;28;20052;-69
2021/08/27 16:44:16;;;;;;;1.50;1.40;;;;;;;14.02;86.45;99612.72;10456624;28;20453;-69
2021/08/27 16:49:18;;;;;;;2.15;1.40;;;;;;;13.97;86.98;99612.13;10456949;28;20064;-69
2021/08/27 16:54:19;;;;;;;2.75;2.30;;;;;;;13.87;86.39;99613.53;10456097;28;20061;-70
2021/08/27 16:59:21;;;;;;;3.63;1.75;;;;;;;14.12;85.77;99610.44;10457312;28;20053;-71
2021/08/27 17:04:22;;;;;;;2.92;1.75;;;;;;;14.04;86.34;99618.81;10455931;28;20049;-69
2021/08/27 17:09:24;;;;;;;1.70;1.60;;;;;;;13.90;87.10;99621.31;10455840;28;20049;-70
2021/08/27 17:14:25;;;;;;;1.77;1.67;;;;;;;13.79;87.53;99613.94;10458078;28;20048;-70
2021/08/27 17:19:27;;;;;;;2.25;2.05;;;;;;;13.61;90.23;99622.78;10457284;28;20056;-70
2021/08/27 17:24:29;;;;;;;2.05;1.95;;;;;;;13.87;86.00;99632.88;10497985;23;20044;-73
2021/08/27 17:29:30;;;;;;;1.88;1.77;;;;;;;14.11;84.03;99640.47;10503427;28;20051;-73
2021/08/27 17:34:32;;;;;;;1.90;1.80;;;;;;;13.77;87.17;99634.31;10503136;28;20045;-72
2021/08/27 17:39:34;;;;;;;2.45;2.25;;;;;;;13.80;86.33;99644.69;10501933;28;20040;-73
2021/08/27 17:44:35;;;;;;;2.78;2.55;;;;;;;13.65;88.43;99636.72;10501319;28;20455;-73
2021/08/27 17:49:37;;;;;;;3.63;3.42;;;;;;;13.45;90.11;99645.63;10500983;28;20098;-73
2021/08/27 17:54:39;;;;;;;3.70;3.50;;;;;;;13.66;88.21;99656.91;10484511;28;20052;-73
2021/08/27 17:59:41;;;;;;;2.78;2.58;;;;;;;13.39;90.68;99652.06;10503988;28;20037;-73
2021/08/27 18:04:42;;;;;;;2.80;2.60;;;;;;;13.25;91.93;99654.53;10510383;28;20056;-73
2021/08/27 18:09:45;;;;;;;3.35;3.05;;;;;;;13.41;92.15;99657.25;10492019;28;20459;-73
2021/08/27 18:14:47;;;;;;;2.55;2.38;;;;;;;13.35;92.74;99654.00;10509468;28;20464;-73
2021/08/27 18:19:48;;;;;;;3.20;2.97;;;;;;;13.74;89.43;99660.00;10509404;28;20051;-73
2021/08/27 18:24:50;;;;;;;4.07;3.80;;;;;;;13.64;89.40;99659.63;10492047;28;20053;-73
2021/08/27 18:29:52;;;;;;;4.07;3.78;;;;;;;13.51;90.77;99669.94;10509224;28;20067;-73
2021/08/27 18:34:55;;;;;;;3.47;3.28;;;;;;;13.46;90.17;99687.81;10505885;28;20498;-73
2021/08/27 18:40:00;;;;;;;;;;;;;;;13.23;91.66;99694.16;10507310;28;20097;-73
2021/08/27 18:45:02;;;;;;;4.00;3.70;;;;;;;13.29;90.41;99695.69;10505978;28;19928;-73
2021/08/27 18:50:04;;;;;;;4.00;3.63;;;;;;;13.39;90.13;99704.84;10505949;28;20047;-73
2021/08/27 18:55:07;;;;;;;3.92;3.70;;;;;;;13.15;91.28;99706.88;10488792;28;20123;-73
2021/08/27 19:00:09;;;;;;;3.35;3.15;;;;;;;13.32;90.35;99712.22;10505796;28;20044;-73
2021/08/27 19:05:11;;;;;;;3.30;3.10;;;;;;;12.93;92.48;99722.00;10488107;28;20045;-73
2021/08/27 19:10:13;;;;;;;4.10;3.80;;;;;;;12.71;93.91;99735.31;10470193;28;20044;-73
2021/08/27 19:15:14;;;;;;;3.28;3.00;;;;;;;12.75;93.53;99729.84;10487170;28;20105;-73
2021/08/27 19:20:16;;;;;;;10.13;2.50;;;;;;;12.80;91.15;99737.53;10505278;28;20051;-73
2021/08/27 19:25:18;;;;;;;2.03;1.40;;;;;;;12.76;90.62;99738.59;10486873;28;20451;-73
2021/08/27 19:30:19;;;;;;;1.95;1.85;;;;;;;12.54;90.15;99752.75;10504036;28;20067;-73
2021/08/27 19:35:21;;;;;;;2.10;2.00;;;;;;;12.24;92.55;99756.72;10503514;28;20052;-73
2021/08/27 19:40:41;;;;;;;4.18;3.78;;;;;;;12.34;92.54;99753.59;10503768;28;20438;-73
2021/08/27 19:45:42;;;;;;;5.82;5.32;;;;;;;12.50;91.42;99760.84;10484847;28;20102;-73
2021/08/27 19:50:44;;;;;;;3.17;2.92;;;;;;;12.41;92.16;99769.16;10504418;28;20067;-74
2021/08/27 19:55:45;;;;;;;3.92;3.63;;;;;;;12.32;92.50;99765.16;10503140;28;20059;-73
2021/08/27 20:00:47;;;;;;;5.03;4.20;;;;;;;12.46;91.59;99768.03;10502850;28;20502;-73
2021/08/27 20:05:49;;;;;;;3.90;3.70;;;;;;;12.37;91.86;99768.44;10502933;28;20466;-73
2021/08/27 20:10:51;;;;;;;3.60;3.30;;;;;;;12.34;91.58;99768.56;10502793;28;20037;-73
2021/08/27 20:15:53;;;;;;;3.33;2.95;;;;;;;12.21;92.26;99784.03;10484767;28;20040;-73
2021/08/27 20:20:54;;;;;;;4.25;3.95;;;;;;;12.12;93.25;99785.28;10502739;28;20041;-74
2021/08/27 20:25:56;;;;;;;5.10;4.80;;;;;;;11.92;95.20;99781.78;10500849;28;20051;-74
2021/08/27 20:30:57;;;;;;;4.72;4.43;;;;;;;11.89;95.45;99788.03;10484040;28;20052;-74
2021/08/27 20:35:59;;;;;;;7.07;6.68;;;;;;;11.82;96.43;99791.78;10502145;28;20049;-74
2021/08/27 20:41:01;;;;;;;7.93;7.32;;;;;;;11.81;97.28;99797.97;10503312;28;20102;-74
2021/08/27 20:46:02;;;;;;;7.35;6.85;;;;;;;11.88;96.66;99796.00;10501102;28;20056;-74
2021/08/27 20:51:04;;;;;;;7.50;7.10;;;;;;;11.83;96.50;99793.56;10502679;28;20044;-74
2021/08/27 20:56:06;;;;;;;5.88;5.57;;;;;;;11.84;96.67;99788.22;10502905;28;20095;-74
2021/08/27 21:01:07;;;;;;;5.60;5.20;;;;;;;12.16;93.57;99795.69;10501422;28;20036;-73
2021/08/27 21:06:09;;;;;;;5.30;5.00;;;;;;;12.38;91.50;99799.13;10500073;28;20044;-73
2021/08/27 21:11:11;;;;;;;5.07;4.63;;;;;;;12.33;92.18;99791.44;10499771;28;20048;-73
2021/08/27 21:16:12;;;;;;;5.65;5.28;;;;;;;12.27;92.30;99794.34;10500584;28;20053;-74
2021/08/27 21:21:14;;;;;;;5.72;5.43;;;;;;;12.26;92.91;99795.28;10500144;28;20048;-74
2021/08/27 21:26:15;;;;;;;5.90;5.38;;;;;;;12.22;93.44;99798.06;10500544;28;20040;-74
2021/08/27 21:31:17;;;;;;;5.20;4.90;;;;;;;12.41;92.27;99800.81;10481850;28;20044;-74
2021/08/27 21:36:19;;;;;;;5.88;5.22;;;;;;;12.38;92.27;99804.41;10505352;28;20041;-74
2021/08/27 21:41:20;;;;;;;6.70;6.30;;;;;;;12.57;91.36;99802.72;10509223;28;20123;-74
2021/08/27 21:46:22;;;;;;;6.88;6.47;;;;;;;12.62;91.82;99802.50;10490559;28;20439;-74
2021/08/27 21:51:24;;;;;;;5.88;5.47;;;;;;;12.56;92.39;99802.75;10508391;28;20410;-74
2021/08/27 21:56:25;;;;;;;6.88;6.35;;;;;;;12.52;93.15;99799.38;10507349;28;20068;-73
2021/08/27 22:01:27;;;;;;;6.30;5.90;;;;;;;12.38;95.32;99801.78;10489675;28;20504;-73
2021/08/27 22:06:29;;;;;;;6.38;5.97;;;;;;;12.48;94.92;99808.34;10508266;28;20044;-73
2021/08/27 22:11:30;;;;;;;6.55;6.05;;;;;;;12.35;96.13;99799.25;10508556;28;20105;-73
2021/08/27 22:16:32;;;;;;;6.70;6.10;;;;;;;12.51;95.24;99804.75;10507836;28;20045;-73
2021/08/27 22:21:34;;;;;;;5.35;5.05;;;;;;;12.77;93.14;99801.81;10507361;28;20033;-73
2021/08/27 22:26:35;;;;;;;5.07;4.50;;;;;;;12.92;91.51;99808.19;10507085;28;20055;-74
2021/08/27 22:31:37;;;;;;;5.18;4.78;;;;;;;12.86;91.82;99801.41;10506581;28;20106;-73
2021/08/27 22:36:39;;;;;;;4.90;4.60;;;;;;;12.71;92.37;99802.09;10506487;28;20051;-73
2021/08/27 22:41:40;;;;;;;4.55;4.20;;;;;;;12.46;95.11;99804.09;10506400;28;20040;-73
2021/08/27 22:46:42;;;;;;;4.97;4.68;;;;;;;12.41;96.10;99811.34;10505303;28;20406;-73
2021/08/27 22:51:43;;;;;;;5.57;5.20;;;;;;;12.39;96.62;99814.03;10487934;28;20040;-74
2021/08/27 22:56:45;;;;;;;5.07;4.78;;;;;;;12.57;95.68;99810.63;10489466;28;20052;-73
2021/08/27 23:01:46;;;;;;;4.90;4.53;;;;;;;12.61;94.58;99812.16;10489131;28;20044;-73
2021/08/27 23:06:48;;;;;;;4.93;4.35;;;;;;;12.59;95.75;99815.81;10506579;28;20056;-74
2021/08/27 23:11:50;;;;;;;5.47;5.07;;;;;;;12.51;96.19;99808.22;10506683;28;20036;-74
2021/08/27 23:16:51;;;;;;;5.43;5.13;;;;;;;12.45;96.84;99811.16;10505600;28;20486;-74
2021/08/27 23:21:53;;;;;;;5.97;5.55;;;;;;;12.31;98.50;99809.09;10505261;28;20045;-73
2021/08/27 23:26:54;;;;;;;4.82;4.53;;;;;;;12.27;99.03;99815.41;10478894;22;20047;-72
2021/08/27 23:31:56;;;;;;;5.90;5.40;;;;;;;12.29;99.17;99820.63;10460802;28;20044;-73